createdAt,value
2023-08-17T00:00:09.897Z,57.62
2023-08-17T00:02:57.430Z,57.76
2023-08-17T00:05:25.185Z,58.04
2023-08-17T00:07:52.744Z,57.94
2023-08-17T00:10:20.163Z,57.87
2023-08-17T00:12:47.724Z,57.63
2023-08-17T00:15:15.027Z,57.59
2023-08-17T00:17:42.614Z,57.65
2023-08-17T00:20:10.945Z,57.41
2023-08-17T00:22:38.702Z,57.65
2023-08-17T00:25:06.609Z,57.69
2023-08-17T00:27:34.435Z,57.74
2023-08-17T00:30:01.811Z,57.62
2023-08-17T00:32:29.357Z,57.41
2023-08-17T00:34:56.670Z,57.31
2023-08-17T00:37:24.459Z,57.38
2023-08-17T00:39:53.126Z,57.27
2023-08-17T00:42:20.664Z,57.56
2023-08-17T00:44:48.049Z,57.62
2023-08-17T00:47:15.839Z,57.51
2023-08-17T00:49:43.399Z,57.57
2023-08-17T00:52:11.596Z,57.42
2023-08-17T00:54:39.106Z,57.32
2023-08-17T00:57:07.811Z,57.64
2023-08-17T00:59:37.096Z,57.38
2023-08-17T01:02:06.082Z,57.40
2023-08-17T01:04:33.622Z,57.81
2023-08-17T01:07:01.542Z,57.45
2023-08-17T01:09:29.339Z,57.83
2023-08-17T01:12:25.643Z,57.51
2023-08-17T01:14:59.036Z,57.55
2023-08-17T01:17:32.804Z,57.58
2023-08-17T01:20:05.171Z,57.67
2023-08-17T01:22:34.441Z,57.48
2023-08-17T01:25:01.791Z,57.81
2023-08-17T01:27:40.905Z,57.68
2023-08-17T01:30:10.824Z,57.83
2023-08-17T01:33:00.891Z,57.69
2023-08-17T01:35:48.985Z,57.44
2023-08-17T01:38:20.174Z,57.48
2023-08-17T01:40:49.119Z,57.58
2023-08-17T01:43:17.781Z,57.43
2023-08-17T01:45:45.241Z,57.60
2023-08-17T01:48:12.878Z,57.38
2023-08-17T01:50:40.538Z,57.41
2023-08-17T01:53:08.260Z,57.37
2023-08-17T01:55:36.521Z,57.17
2023-08-17T01:58:04.371Z,57.48
2023-08-17T02:00:31.662Z,57.45
2023-08-17T02:02:59.277Z,57.16
2023-08-17T02:05:29.363Z,57.14
2023-08-17T02:07:57.124Z,57.49
2023-08-17T02:10:24.473Z,57.39
2023-08-17T02:12:58.872Z,57.33
2023-08-17T02:15:29.345Z,57.22
2023-08-17T02:18:00.776Z,57.09
2023-08-17T02:20:28.141Z,57.10
2023-08-17T02:22:55.812Z,57.07
2023-08-17T02:25:23.411Z,56.80
2023-08-17T02:27:51.549Z,57.15
2023-08-17T02:30:19.477Z,56.97
2023-08-17T02:32:47.139Z,57.10
2023-08-17T02:35:14.406Z,57.08
2023-08-17T02:37:42.024Z,57.10
2023-08-17T02:40:09.792Z,57.14
2023-08-17T02:42:37.498Z,57.53
2023-08-17T02:45:05.116Z,57.32
2023-08-17T02:47:32.731Z,57.25
2023-08-17T02:50:00.209Z,57.13
2023-08-17T02:52:27.749Z,56.93
2023-08-17T02:54:55.137Z,57.14
2023-08-17T02:57:22.847Z,56.86
2023-08-17T02:59:50.154Z,56.84
2023-08-17T03:02:17.719Z,56.93
2023-08-17T03:04:44.957Z,56.73
2023-08-17T03:07:12.572Z,56.82
2023-08-17T03:09:39.925Z,57.01
2023-08-17T03:12:07.669Z,56.70
2023-08-17T03:14:34.999Z,56.72
2023-08-17T03:17:02.666Z,56.69
2023-08-17T03:19:29.959Z,56.71
2023-08-17T03:21:57.518Z,57.09
2023-08-17T03:24:24.804Z,56.79
2023-08-17T03:26:52.820Z,56.60
2023-08-17T03:29:20.187Z,56.91
2023-08-17T03:31:47.794Z,56.77
2023-08-17T03:34:15.123Z,56.85
2023-08-17T03:36:42.697Z,57.11
2023-08-17T03:39:10.039Z,57.07
2023-08-17T03:41:37.865Z,57.00
2023-08-17T03:44:07.012Z,56.73
2023-08-17T03:46:34.890Z,56.96
2023-08-17T03:49:02.219Z,57.14
2023-08-17T03:51:29.780Z,57.22
2023-08-17T03:53:57.040Z,56.92
2023-08-17T03:56:24.652Z,57.20
2023-08-17T03:58:54.016Z,56.96
2023-08-17T04:01:21.674Z,57.21
2023-08-17T04:03:49.022Z,57.02
2023-08-17T04:06:16.840Z,57.02
2023-08-17T04:08:44.186Z,57.15
2023-08-17T04:11:11.826Z,56.96
2023-08-17T04:13:44.164Z,57.09
2023-08-17T04:16:11.811Z,57.46
2023-08-17T04:18:39.159Z,57.41
2023-08-17T04:21:06.809Z,57.12
2023-08-17T04:23:34.099Z,57.09
2023-08-17T04:26:01.637Z,57.42
2023-08-17T04:28:28.982Z,57.13
2023-08-17T04:30:56.521Z,57.55
2023-08-17T04:33:23.827Z,57.49
2023-08-17T04:35:51.556Z,57.27
2023-08-17T04:38:18.864Z,57.58
2023-08-17T04:40:46.476Z,57.55
2023-08-17T04:43:14.120Z,57.84
2023-08-17T04:45:41.803Z,58.23
2023-08-17T04:48:09.368Z,58.18
2023-08-17T04:50:37.385Z,58.63
2023-08-17T04:53:04.737Z,58.81
2023-08-17T04:55:35.903Z,58.82
2023-08-17T04:58:03.317Z,58.94
2023-08-17T05:00:31.752Z,59.15
2023-08-17T05:02:59.128Z,59.22
2023-08-17T05:05:26.888Z,59.10
2023-08-17T05:07:54.359Z,58.99
2023-08-17T05:10:21.933Z,59.09
2023-08-17T05:12:49.323Z,59.49
2023-08-17T05:15:17.048Z,59.61
2023-08-17T05:17:44.357Z,59.66
2023-08-17T05:20:13.904Z,59.81
2023-08-17T05:22:41.369Z,60.14
2023-08-17T05:25:09.282Z,59.85
2023-08-17T05:27:36.562Z,60.12
2023-08-17T05:30:04.682Z,59.81
2023-08-17T05:32:32.066Z,59.52
2023-08-17T05:34:59.620Z,59.86
2023-08-17T05:37:27.624Z,59.63
2023-08-17T05:39:55.305Z,59.71
2023-08-17T05:42:22.602Z,59.73
2023-08-17T05:44:50.328Z,59.72
2023-08-17T05:47:20.145Z,59.53
2023-08-17T05:49:47.683Z,59.84
2023-08-17T05:52:14.968Z,59.45
2023-08-17T05:54:43.641Z,59.46
2023-08-17T05:57:11.791Z,59.32
2023-08-17T05:59:39.333Z,59.47
2023-08-17T06:02:06.704Z,59.20
2023-08-17T06:04:34.380Z,59.55
2023-08-17T06:07:01.843Z,59.59
2023-08-17T06:09:29.394Z,59.26
2023-08-17T06:11:56.665Z,59.16
2023-08-17T06:14:24.432Z,59.64
2023-08-17T06:16:51.729Z,59.55
2023-08-17T06:19:19.372Z,59.29
2023-08-17T06:21:46.668Z,59.60
2023-08-17T06:24:14.302Z,59.47
2023-08-17T06:26:41.584Z,59.63
2023-08-17T06:29:09.137Z,59.19
2023-08-17T06:31:36.571Z,59.29
2023-08-17T06:34:04.968Z,59.26
2023-08-17T06:36:33.684Z,59.45
2023-08-17T06:39:01.544Z,59.25
2023-08-17T06:41:28.868Z,59.20
2023-08-17T06:43:56.413Z,59.33
2023-08-17T06:46:25.609Z,59.58
2023-08-17T06:48:53.224Z,59.61
2023-08-17T06:51:20.523Z,59.33
2023-08-17T06:53:48.056Z,59.25
2023-08-17T06:56:15.340Z,59.37
2023-08-17T06:58:42.954Z,59.45
2023-08-17T07:01:10.904Z,59.50
2023-08-17T07:03:39.427Z,59.26
2023-08-17T07:06:06.941Z,59.47
2023-08-17T07:08:34.507Z,59.71
2023-08-17T07:11:01.820Z,59.12
2023-08-17T07:13:29.568Z,59.08
2023-08-17T07:15:57.051Z,59.32
2023-08-17T07:18:24.973Z,59.20
2023-08-17T07:20:52.240Z,59.00
2023-08-17T07:23:19.835Z,59.43
2023-08-17T07:25:47.272Z,59.56
2023-08-17T07:28:16.635Z,59.79
2023-08-17T07:30:43.941Z,60.17
2023-08-17T07:33:11.597Z,59.90
2023-08-17T07:35:38.981Z,60.30
2023-08-17T07:38:09.418Z,60.00
2023-08-17T07:40:37.324Z,59.90
2023-08-17T07:43:05.514Z,59.59
2023-08-17T07:45:32.829Z,59.83
2023-08-17T07:48:00.492Z,59.97
2023-08-17T07:50:27.780Z,59.71
2023-08-17T07:52:55.281Z,59.36
2023-08-17T07:55:22.663Z,59.60
2023-08-17T07:57:50.212Z,59.67
2023-08-17T08:00:17.813Z,59.58
2023-08-17T08:02:45.793Z,59.54
2023-08-17T08:05:15.224Z,59.76
2023-08-17T08:07:43.506Z,59.54
2023-08-17T08:10:10.859Z,59.69
2023-08-17T08:12:38.613Z,59.44
2023-08-17T08:15:06.340Z,59.56
2023-08-17T08:17:34.158Z,59.73
2023-08-17T08:20:01.726Z,59.79
2023-08-17T08:22:29.286Z,59.75
2023-08-17T08:24:56.775Z,59.43
2023-08-17T08:27:24.568Z,59.26
2023-08-17T08:29:52.044Z,59.56
2023-08-17T08:32:19.578Z,59.21
2023-08-17T08:34:47.120Z,59.41
2023-08-17T08:37:15.100Z,59.43
2023-08-17T08:39:53.026Z,59.48
2023-08-17T08:42:21.874Z,59.19
2023-08-17T08:44:50.648Z,59.30
2023-08-17T08:47:19.106Z,59.38
2023-08-17T08:50:03.801Z,59.49
2023-08-17T08:52:35.772Z,59.24
2023-08-17T08:55:13.367Z,59.28
2023-08-17T08:57:42.537Z,59.12
2023-08-17T09:00:10.656Z,59.38
2023-08-17T09:02:38.266Z,59.00
2023-08-17T09:05:11.335Z,59.23
2023-08-17T09:07:42.382Z,58.86
2023-08-17T09:10:11.389Z,58.90
2023-08-17T09:12:41.596Z,58.96
2023-08-17T09:15:10.215Z,58.96
2023-08-17T09:17:38.143Z,58.68
2023-08-17T09:20:08.341Z,58.29
2023-08-17T09:22:44.826Z,58.13
2023-08-17T09:25:12.387Z,58.25
2023-08-17T09:27:40.347Z,57.81
2023-08-17T09:30:10.289Z,57.58
2023-08-17T09:32:38.113Z,57.22
2023-08-17T09:35:06.730Z,57.40
2023-08-17T09:37:34.964Z,57.75
2023-08-17T09:40:02.501Z,57.33
2023-08-17T09:42:30.248Z,57.53
2023-08-17T09:44:58.937Z,57.10
2023-08-17T09:47:27.721Z,57.38
2023-08-17T09:49:55.936Z,57.26
2023-08-17T09:52:25.271Z,56.88
2023-08-17T09:54:55.625Z,56.89
2023-08-17T09:57:23.939Z,56.83
2023-08-17T09:59:54.780Z,56.78
2023-08-17T10:02:27.272Z,56.54
2023-08-17T10:04:55.200Z,55.69
2023-08-17T10:07:33.372Z,55.15
2023-08-17T10:10:05.143Z,54.81
2023-08-17T10:12:54.348Z,55.29
2023-08-17T10:15:25.296Z,54.87
2023-08-17T10:18:40.852Z,55.31
2023-08-17T10:21:18.692Z,55.65
2023-08-17T10:23:47.214Z,55.38
2023-08-17T10:26:14.595Z,54.49
2023-08-17T10:28:42.905Z,53.83
2023-08-17T10:31:11.475Z,54.09
2023-08-17T10:33:43.092Z,53.93
2023-08-17T10:36:11.582Z,53.62
2023-08-17T10:38:39.227Z,53.75
2023-08-17T10:41:18.564Z,53.98
2023-08-17T10:43:59.677Z,54.24
2023-08-17T10:46:35.080Z,54.46
2023-08-17T10:49:09.296Z,54.24
2023-08-17T10:51:36.811Z,54.04
2023-08-17T10:54:05.417Z,53.80
2023-08-17T10:56:33.889Z,53.71
2023-08-17T10:59:02.951Z,52.96
2023-08-17T11:01:36.582Z,52.15
2023-08-17T11:04:33.629Z,52.69
2023-08-17T11:07:05.144Z,53.14
2023-08-17T11:09:36.057Z,53.07
2023-08-17T11:12:03.758Z,51.87
2023-08-17T11:14:34.996Z,53.15
2023-08-17T11:17:06.477Z,53.25
2023-08-17T11:19:34.363Z,53.57
2023-08-17T11:22:01.998Z,53.50
2023-08-17T11:24:29.755Z,53.41
2023-08-17T11:26:57.874Z,53.76
2023-08-17T11:29:26.345Z,53.62
2023-08-17T11:31:54.131Z,54.07
2023-08-17T11:34:21.795Z,54.39
2023-08-17T11:36:49.088Z,54.90
2023-08-17T11:39:16.737Z,54.89
2023-08-17T11:41:44.387Z,55.25
2023-08-17T11:44:12.312Z,55.12
2023-08-17T11:46:39.720Z,54.94
2023-08-17T11:49:07.881Z,55.13
2023-08-17T11:51:36.158Z,55.25
2023-08-17T11:54:05.950Z,55.29
2023-08-17T11:56:33.254Z,55.59
2023-08-17T11:59:10.132Z,55.28
2023-08-17T12:01:37.730Z,55.42
2023-08-17T12:04:06.709Z,55.46
2023-08-17T12:06:34.281Z,55.14
2023-08-17T12:09:01.970Z,55.49
2023-08-17T12:11:30.192Z,55.43
2023-08-17T12:13:58.835Z,55.88
2023-08-17T12:16:26.168Z,55.51
2023-08-17T12:18:54.386Z,55.73
2023-08-17T12:21:26.282Z,55.77
2023-08-17T12:23:54.136Z,56.06
2023-08-17T12:26:22.500Z,55.94
2023-08-17T12:28:50.663Z,55.87
2023-08-17T12:31:22.873Z,55.85
2023-08-17T12:33:51.576Z,56.11
2023-08-17T12:36:19.841Z,55.98
2023-08-17T12:38:49.059Z,56.18
2023-08-17T12:41:17.231Z,56.20
2023-08-17T12:43:44.806Z,56.20
2023-08-17T12:46:12.214Z,56.14
2023-08-17T12:48:40.515Z,55.95
2023-08-17T12:51:07.869Z,56.00
2023-08-17T12:53:35.523Z,56.20
2023-08-17T12:56:02.979Z,56.34
2023-08-17T12:58:30.620Z,56.32
2023-08-17T13:00:58.040Z,56.32
2023-08-17T13:03:25.735Z,56.22
2023-08-17T13:05:53.159Z,56.35
2023-08-17T13:08:20.881Z,56.30
2023-08-17T13:10:48.238Z,56.41
2023-08-17T13:13:15.873Z,56.45
2023-08-17T13:15:43.225Z,56.73
2023-08-17T13:18:11.048Z,56.51
2023-08-17T13:20:39.601Z,56.63
2023-08-17T13:23:07.468Z,56.68
2023-08-17T13:25:35.057Z,56.40
2023-08-17T13:28:02.752Z,56.45
2023-08-17T13:30:30.160Z,56.40
2023-08-17T13:32:58.080Z,56.38
2023-08-17T13:35:25.738Z,56.41
2023-08-17T13:37:54.723Z,56.72
2023-08-17T13:40:22.656Z,56.51
2023-08-17T13:42:50.363Z,56.58
2023-08-17T13:45:18.142Z,56.73
2023-08-17T13:47:45.770Z,56.51
2023-08-17T13:50:13.152Z,56.64
2023-08-17T13:52:41.258Z,56.68
2023-08-17T13:55:09.102Z,56.68
2023-08-17T13:57:36.780Z,56.60
2023-08-17T14:00:05.196Z,56.65
2023-08-17T14:02:33.231Z,56.54
2023-08-17T14:05:00.852Z,56.63
2023-08-17T14:07:28.794Z,56.62
2023-08-17T14:10:07.436Z,56.64
2023-08-17T14:12:38.392Z,56.61
2023-08-17T14:15:06.473Z,56.94
2023-08-17T14:17:34.235Z,56.86
2023-08-17T14:20:01.560Z,56.51
2023-08-17T14:22:29.355Z,56.85
2023-08-17T14:24:56.872Z,56.88
2023-08-17T14:27:24.707Z,56.85
2023-08-17T14:29:52.523Z,56.53
2023-08-17T14:32:20.090Z,56.89
2023-08-17T14:34:47.381Z,56.81
2023-08-17T14:37:15.162Z,56.83
2023-08-17T14:39:42.658Z,56.92
2023-08-17T14:42:10.306Z,56.92
2023-08-17T14:44:37.668Z,56.80
2023-08-17T14:47:05.464Z,56.78
2023-08-17T14:49:32.922Z,56.71
2023-08-17T14:52:00.464Z,56.51
2023-08-17T14:54:27.761Z,56.74
2023-08-17T14:56:57.715Z,56.66
2023-08-17T14:59:25.220Z,56.79
2023-08-17T15:01:53.851Z,56.56
2023-08-17T15:04:25.876Z,56.79
2023-08-17T15:06:53.866Z,56.76
2023-08-17T15:09:21.532Z,56.83
2023-08-17T15:11:51.271Z,56.88
2023-08-17T15:14:18.667Z,56.77
2023-08-17T15:16:46.214Z,56.63
2023-08-17T15:19:15.469Z,56.76
2023-08-17T15:21:43.350Z,56.64
2023-08-17T15:24:10.942Z,56.72
2023-08-17T15:26:38.569Z,56.58
2023-08-17T15:29:05.911Z,56.76
2023-08-17T15:31:33.582Z,56.76
2023-08-17T15:34:00.957Z,56.64
2023-08-17T15:36:28.578Z,56.91
2023-08-17T15:38:55.850Z,56.97
2023-08-17T15:41:23.467Z,57.05
2023-08-17T15:43:50.836Z,56.96
2023-08-17T15:46:19.130Z,56.76
2023-08-17T15:48:46.579Z,56.73
2023-08-17T15:51:14.286Z,56.83
2023-08-17T15:53:44.465Z,56.92
2023-08-17T15:56:12.288Z,56.71
2023-08-17T15:58:39.638Z,56.58
2023-08-17T16:01:07.399Z,56.84
2023-08-17T16:03:37.256Z,56.58
2023-08-17T16:06:04.960Z,56.95
2023-08-17T16:08:47.297Z,56.58
2023-08-17T16:11:16.431Z,56.88
2023-08-17T16:13:46.013Z,56.73
2023-08-17T16:16:14.346Z,57.06
2023-08-17T16:18:41.973Z,56.86
2023-08-17T16:23:39.799Z,56.93
2023-08-17T16:26:07.372Z,56.88
2023-08-17T16:28:34.674Z,56.90
2023-08-17T16:31:05.269Z,57.23
2023-08-17T16:33:33.404Z,57.44
2023-08-17T16:36:01.101Z,57.41
2023-08-17T16:38:28.453Z,57.70
2023-08-17T16:40:56.094Z,58.11
2023-08-17T16:43:23.707Z,57.98
2023-08-17T16:45:51.550Z,57.99
2023-08-17T16:50:51.946Z,58.37
2023-08-17T16:53:19.401Z,58.48
2023-08-17T16:55:54.072Z,58.43
2023-08-17T16:58:22.593Z,58.49
2023-08-17T17:00:50.557Z,58.41
2023-08-17T17:03:17.963Z,58.50
2023-08-17T17:05:45.638Z,58.74
2023-08-17T17:08:12.960Z,58.66
2023-08-17T17:10:40.521Z,58.51
2023-08-17T17:13:07.994Z,58.69
2023-08-17T17:15:35.634Z,58.41
2023-08-17T17:18:03.198Z,58.52
2023-08-17T17:20:32.145Z,58.54
2023-08-17T17:22:59.520Z,58.90
2023-08-17T17:25:27.087Z,58.77
2023-08-17T17:27:54.859Z,58.59
2023-08-17T17:30:22.456Z,58.87
2023-08-17T17:32:50.204Z,58.78
2023-08-17T17:35:17.793Z,58.57
2023-08-17T17:37:45.181Z,58.81
2023-08-17T17:40:12.993Z,58.57
2023-08-17T17:42:40.454Z,59.02
2023-08-17T17:45:08.348Z,58.91
2023-08-17T17:47:36.093Z,58.99
2023-08-17T17:50:05.915Z,58.80
2023-08-17T17:52:33.719Z,58.96
2023-08-17T17:55:01.673Z,58.71
2023-08-17T17:57:29.451Z,58.65
2023-08-17T17:59:57.599Z,58.79
2023-08-17T18:02:27.229Z,59.01
2023-08-17T18:04:54.992Z,58.69
2023-08-17T18:07:22.322Z,58.85
2023-08-17T18:09:49.987Z,58.61
2023-08-17T18:12:17.321Z,58.99
2023-08-17T18:14:45.142Z,58.28
2023-08-17T18:17:12.485Z,58.58
2023-08-17T18:19:40.078Z,58.34
2023-08-17T18:22:07.529Z,58.34
2023-08-17T18:24:35.094Z,58.20
2023-08-17T18:27:02.375Z,58.32
2023-08-17T18:29:29.959Z,58.44
2023-08-17T18:31:57.201Z,58.18
2023-08-17T18:34:25.010Z,58.16
2023-08-17T18:36:52.342Z,58.49
2023-08-17T18:39:19.973Z,58.11
2023-08-17T18:41:47.224Z,58.24
2023-08-17T18:44:14.783Z,58.18
2023-08-17T18:46:42.114Z,58.44
2023-08-17T18:49:09.747Z,58.19
2023-08-17T18:51:37.104Z,58.09
2023-08-17T18:54:05.130Z,58.09
2023-08-17T18:56:32.545Z,58.08
2023-08-17T18:59:00.103Z,58.12
2023-08-17T19:01:27.443Z,58.12
2023-08-17T19:03:55.303Z,58.17
2023-08-17T19:06:23.019Z,58.30
2023-08-17T19:08:50.581Z,58.22
2023-08-17T19:11:17.888Z,58.17
2023-08-17T19:13:45.472Z,58.15
2023-08-17T19:16:12.890Z,58.01
2023-08-17T19:18:40.490Z,58.25
2023-08-17T19:21:08.089Z,58.46
2023-08-17T19:23:35.893Z,58.34
2023-08-17T19:26:03.292Z,58.36
2023-08-17T19:28:30.902Z,58.12
2023-08-17T19:30:58.556Z,58.04
2023-08-17T19:33:26.158Z,58.16
2023-08-17T19:35:53.580Z,58.17
2023-08-17T19:38:22.876Z,58.43
2023-08-17T19:40:50.289Z,58.44
2023-08-17T19:43:18.331Z,57.98
2023-08-17T19:45:45.697Z,58.01
2023-08-17T19:48:13.352Z,58.39
2023-08-17T19:50:41.907Z,58.16
2023-08-17T19:53:09.738Z,58.01
2023-08-17T19:55:37.071Z,58.21
2023-08-17T19:58:04.987Z,58.28
2023-08-17T20:00:32.243Z,58.25
2023-08-17T20:03:00.094Z,58.13
2023-08-17T20:05:28.066Z,58.17
2023-08-17T20:07:55.711Z,58.47
2023-08-17T20:10:23.019Z,58.28
2023-08-17T20:12:50.636Z,58.72
2023-08-17T20:15:17.910Z,58.83
2023-08-17T20:17:45.603Z,58.49
2023-08-17T20:20:16.581Z,58.39
2023-08-17T20:22:44.945Z,58.64
2023-08-17T20:25:13.872Z,58.64
2023-08-17T20:27:43.383Z,58.52
2023-08-17T20:30:11.093Z,58.73
2023-08-17T20:32:42.162Z,58.99
2023-08-17T20:35:10.056Z,59.02
2023-08-17T20:37:38.464Z,58.69
2023-08-17T20:40:07.130Z,58.79
2023-08-17T20:42:34.757Z,58.44
2023-08-17T20:45:02.025Z,58.47
2023-08-17T20:47:29.972Z,58.35
2023-08-17T20:49:59.587Z,58.58
2023-08-17T20:52:27.213Z,58.59
2023-08-17T20:54:54.562Z,58.63
2023-08-17T20:57:22.326Z,58.59
2023-08-17T20:59:50.209Z,58.53
2023-08-17T21:02:17.729Z,58.24
2023-08-17T21:04:45.014Z,58.31
2023-08-17T21:07:12.701Z,58.62
2023-08-17T21:09:40.679Z,58.56
2023-08-17T21:12:08.330Z,58.50
2023-08-17T21:14:35.617Z,58.59
2023-08-17T21:17:03.212Z,58.46
2023-08-17T21:19:30.509Z,58.49
2023-08-17T21:21:58.080Z,58.49
2023-08-17T21:24:25.386Z,58.55
2023-08-17T21:26:52.915Z,58.44
2023-08-17T21:29:20.309Z,58.46
2023-08-17T21:31:50.527Z,58.15
2023-08-17T21:34:20.731Z,58.13
2023-08-17T21:36:48.453Z,58.16
2023-08-17T21:39:16.033Z,58.30
2023-08-17T21:41:43.670Z,58.08
2023-08-17T21:44:11.078Z,58.37
2023-08-17T21:46:40.780Z,58.38
2023-08-17T21:49:08.115Z,58.48
2023-08-17T21:51:35.710Z,58.45
2023-08-17T21:54:03.224Z,58.48
2023-08-17T21:56:30.827Z,58.19
2023-08-17T21:58:58.581Z,58.41
2023-08-17T22:01:26.138Z,57.96
2023-08-17T22:03:53.520Z,58.39
2023-08-17T22:06:21.745Z,58.42
2023-08-17T22:08:49.224Z,58.19
2023-08-17T22:11:16.849Z,58.09
2023-08-17T22:13:44.161Z,58.21
2023-08-17T22:16:11.712Z,58.39
2023-08-17T22:18:39.051Z,58.07
2023-08-17T22:21:06.709Z,57.99
2023-08-17T22:23:34.481Z,58.10
2023-08-17T22:26:02.047Z,58.30
2023-08-17T22:28:29.348Z,58.07
2023-08-17T22:31:07.617Z,57.96
2023-08-17T22:33:35.795Z,57.90
2023-08-17T22:36:04.320Z,58.30
2023-08-17T22:38:31.654Z,57.96
2023-08-17T22:40:59.203Z,57.96
2023-08-17T22:43:26.534Z,58.28
2023-08-17T22:45:54.156Z,58.22
2023-08-17T22:48:21.469Z,58.12
2023-08-17T22:50:49.146Z,58.35
2023-08-17T22:53:16.563Z,58.06
2023-08-17T22:55:44.104Z,58.06
2023-08-17T22:58:11.404Z,57.92
2023-08-17T23:00:40.178Z,58.01
2023-08-17T23:03:07.628Z,58.15
2023-08-17T23:05:35.362Z,58.24
2023-08-17T23:08:02.691Z,58.23
2023-08-17T23:10:30.384Z,57.95
2023-08-17T23:12:57.612Z,58.24
2023-08-17T23:15:25.356Z,58.34
2023-08-17T23:17:52.864Z,57.94
2023-08-17T23:20:20.590Z,58.30
2023-08-17T23:22:47.846Z,57.89
2023-08-17T23:25:15.624Z,58.13
2023-08-17T23:27:43.055Z,57.99
2023-08-17T23:30:12.271Z,58.32
2023-08-17T23:32:39.656Z,58.14
2023-08-17T23:35:07.896Z,58.25
2023-08-17T23:37:35.267Z,58.19
2023-08-17T23:40:03.895Z,57.94
2023-08-17T23:42:31.424Z,57.99
2023-08-17T23:44:59.086Z,58.26
2023-08-17T23:47:26.537Z,58.18
2023-08-17T23:49:54.351Z,58.08
2023-08-17T23:52:22.531Z,58.10
2023-08-17T23:54:50.056Z,58.10
2023-08-17T23:57:17.492Z,58.17
2023-08-17T23:59:45.377Z,58.14
